createdAt,value
2018-12-10T00:05:15.000Z,38.2
2018-12-10T00:15:15.000Z,37.9
2018-12-10T00:25:15.000Z,38
2018-12-10T00:35:15.000Z,37.9
2018-12-10T00:45:15.000Z,37.9
2018-12-10T00:55:15.000Z,37.7
2018-12-10T01:05:15.000Z,37.5
2018-12-10T01:15:15.000Z,37.4
2018-12-10T01:25:15.000Z,37.3
2018-12-10T01:35:15.000Z,37.1
2018-12-10T01:45:15.000Z,37.1
2018-12-10T01:55:15.000Z,37.3
2018-12-10T02:05:15.000Z,37.7
2018-12-10T02:15:15.000Z,37.9
2018-12-10T02:25:15.000Z,37.6
2018-12-10T02:35:15.000Z,37.8
2018-12-10T02:45:15.000Z,38.3
2018-12-10T02:55:15.000Z,39.8
2018-12-10T03:05:15.000Z,38.7
2018-12-10T03:15:16.000Z,38.1
2018-12-10T03:25:16.000Z,37.8
2018-12-10T03:35:16.000Z,37.6
2018-12-10T03:45:16.000Z,37.7
2018-12-10T03:55:16.000Z,37.9
2018-12-10T04:05:16.000Z,37.9
2018-12-10T04:15:16.000Z,37.6
2018-12-10T04:25:16.000Z,37.5
2018-12-10T04:35:16.000Z,37.6
2018-12-10T04:45:16.000Z,37.4
2018-12-10T04:55:16.000Z,37.8
2018-12-10T05:05:16.000Z,37.3
2018-12-10T05:15:16.000Z,37.4
2018-12-10T05:25:16.000Z,37.5
2018-12-10T05:35:16.000Z,37.6
2018-12-10T05:45:16.000Z,37.7
2018-12-10T05:55:16.000Z,37.5
2018-12-10T06:05:16.000Z,37.1
2018-12-10T06:15:16.000Z,38.2
2018-12-10T06:25:16.000Z,37.3
2018-12-10T06:35:16.000Z,37.3
2018-12-10T06:45:16.000Z,37.5
2018-12-10T06:55:16.000Z,37.5
2018-12-10T07:05:16.000Z,36.9
2018-12-10T07:15:16.000Z,36.7
2018-12-10T07:25:16.000Z,36.6
2018-12-10T07:35:16.000Z,38.4
2018-12-10T07:45:16.000Z,39.1
2018-12-10T07:55:16.000Z,39.1
2018-12-10T08:05:16.000Z,39.5
2018-12-10T08:15:16.000Z,39.7
2018-12-10T08:25:16.000Z,42.7
2018-12-10T08:35:16.000Z,43.5
2018-12-10T08:45:16.000Z,44
2018-12-10T08:55:16.000Z,44.3
2018-12-10T09:05:16.000Z,44.5
2018-12-10T09:15:16.000Z,45.2
2018-12-10T09:25:16.000Z,46
2018-12-10T09:35:16.000Z,46.2
2018-12-10T09:45:16.000Z,46.3
2018-12-10T09:55:16.000Z,46.3
2018-12-10T10:05:16.000Z,46.6
2018-12-10T10:15:17.000Z,46.9
2018-12-10T10:25:17.000Z,46.7
2018-12-10T10:35:17.000Z,47.5
2018-12-10T10:45:17.000Z,47.6
2018-12-10T10:55:17.000Z,47.9
2018-12-10T11:05:17.000Z,47.9
2018-12-10T11:15:17.000Z,47.5
2018-12-10T11:25:18.000Z,47.3
2018-12-10T11:35:17.000Z,47.2
2018-12-10T11:45:17.000Z,47.8
2018-12-10T11:55:17.000Z,47.7
2018-12-10T12:05:17.000Z,47.9
2018-12-10T12:15:17.000Z,47.4
2018-12-10T12:25:17.000Z,46.9
2018-12-10T12:35:17.000Z,46.9
2018-12-10T12:45:17.000Z,47.4
2018-12-10T12:55:17.000Z,47.6
2018-12-10T13:05:17.000Z,48.1
2018-12-10T13:15:17.000Z,48.3
2018-12-10T13:25:17.000Z,48.3
2018-12-10T13:35:17.000Z,48.4
2018-12-10T13:45:17.000Z,48.7
2018-12-10T13:55:17.000Z,48.5
2018-12-10T14:05:18.000Z,48.8
2018-12-10T14:15:17.000Z,49.2
2018-12-10T14:25:17.000Z,49
2018-12-10T14:35:17.000Z,35.6
2018-12-10T14:45:18.000Z,44.9
2018-12-10T14:55:17.000Z,46
2018-12-10T15:05:17.000Z,46.4
2018-12-10T15:15:17.000Z,46.7
2018-12-10T15:25:17.000Z,47.4
2018-12-10T15:35:17.000Z,47.8
2018-12-10T15:45:17.000Z,48.1
2018-12-10T15:55:17.000Z,48.4
2018-12-10T16:05:17.000Z,48.5
2018-12-10T16:15:17.000Z,48.9
2018-12-10T16:25:17.000Z,49.2
2018-12-10T16:35:17.000Z,49.3
2018-12-10T16:45:17.000Z,49.5
2018-12-10T16:55:17.000Z,49.6
2018-12-10T17:05:18.000Z,49.5
2018-12-10T17:15:18.000Z,49.4
2018-12-10T17:25:18.000Z,49.2
2018-12-10T17:35:18.000Z,50.5
2018-12-10T17:45:18.000Z,50.3
2018-12-10T17:55:18.000Z,49.5
2018-12-10T18:05:21.000Z,49.8
2018-12-10T18:15:18.000Z,49.6
2018-12-10T18:25:18.000Z,50.2
2018-12-10T18:35:18.000Z,50
2018-12-10T18:45:18.000Z,50.1
2018-12-10T18:55:18.000Z,49.9
2018-12-10T19:05:18.000Z,49.6
2018-12-10T19:15:18.000Z,49.3
2018-12-10T19:25:20.000Z,49.3
2018-12-10T19:35:18.000Z,49
2018-12-10T19:45:18.000Z,49.1
2018-12-10T19:55:18.000Z,49.1
2018-12-10T20:05:18.000Z,49
2018-12-10T20:15:18.000Z,48.9
2018-12-10T20:25:18.000Z,48.8
2018-12-10T20:35:18.000Z,48.9
2018-12-10T20:45:19.000Z,48.7
2018-12-10T20:55:18.000Z,48.6
2018-12-10T21:05:18.000Z,48
2018-12-10T21:15:18.000Z,49.2
2018-12-10T21:25:18.000Z,42.5
2018-12-10T21:35:18.000Z,38.8
2018-12-10T21:45:18.000Z,38.6
2018-12-10T21:55:18.000Z,38.3
2018-12-10T22:05:18.000Z,38.4
2018-12-10T22:15:19.000Z,39.1
2018-12-10T22:25:18.000Z,39.3
2018-12-10T22:35:18.000Z,39.6
2018-12-10T22:45:18.000Z,39.6
2018-12-10T22:55:18.000Z,40
2018-12-10T23:05:18.000Z,40.3
2018-12-10T23:15:18.000Z,40.2
2018-12-10T23:25:18.000Z,40.8
2018-12-10T23:35:18.000Z,40.7
2018-12-10T23:45:18.000Z,39.9
2018-12-10T23:55:18.000Z,39.4
